This demonstration page uses our WeatherBlox Daily Observations layout. Learn more.

36.19886, -115.1175

Hourly Observations for June 2, 2018

Temp ( °F °C ) Dew Point ( °F °C ) Humidity (%) Winds ( mph kmh ) Pressure ( in mb ) Visibility ( mi km ) Precip ( " mm )
12:53 am 00:53 Clear 78 25.6 27 -2.8 15 15 NNW 7 11 29.88 1012 10 16.09344 0 0
1:53 am 01:53 Clear 79 26.1 22 -5.6 12 12 N 6 9 29.91 1013 10 16.09344 0 0
2:53 am 02:53 Clear 78 25.6 21 -6.1 12 12 N 8 13 29.91 1013 10 16.09344 0 0
3:53 am 03:53 Clear 77 25 21 -6.1 12 12 Calm 29.91 1013 10 16.09344 0 0
4:53 am 04:53 Clear 78 25.6 18 -7.8 10 10 NNW 10 17 29.94 1014 10 16.09344 0 0
5:53 am 05:53 Sunny 79 26.1 26 -3.3 14 14 NNW 12 19 29.94 1014 10 16.09344 0 0
6:53 am 06:53 Sunny 81 27.2 29 -1.7 15 15 N 12 19 29.97 1015 10 16.09344 0 0
7:53 am 07:53 Sunny 83 28.3 30 -1.1 15 15 N 14 22 29.97 1015 10 16.09344 0 0
8:53 am 08:53 Sunny 86 30 29 -1.7 13 13 N 15 24 29.97 1015 10 16.09344 0 0
9:53 am 09:53 Sunny 89 31.7 27 -2.8 11 11 N 14 22 29.97 1015 10 16.09344 0 0
10:53 am 10:53 Sunny 91 32.8 25 -3.9 9 9 NE 6 9 29.97 1015 10 16.09344 0 0
11:53 am 11:53 Sunny 92 33.3 24 -4.4 8 8 Calm 29.94 1014 10 16.09344 0 0
12:53 pm 12:53 Sunny 95 35 23 -5 7 7 N 7 11 29.91 1013 10 16.09344 0 0
1:53 pm 13:53 Sunny 96 35.6 22 -5.6 7 7 N 5 7 29.88 1012 10 16.09344 0 0
2:53 pm 14:53 Sunny 97 36.1 19 -7.2 6 6 W 6 9 29.85 1011 10 16.09344 0 0
3:53 pm 15:53 Sunny 97 36.1 19 -7.2 6 6 Calm 29.83 1010 10 16.09344 0 0
4:53 pm 16:53 Sunny 99 37.2 18 -7.8 5 5 NNW 12 19 29.8 1009 10 16.09344 0 0
5:53 pm 17:53 Sunny 99 37.2 17 -8.3 5 5 NNW 7 11 29.8 1009 10 16.09344 0 0
6:53 pm 18:53 Sunny 98 36.7 17 -8.3 5 5 Calm 29.8 1009 10 16.09344 0 0
7:53 pm 19:53 Sunny 96 35.6 22 -5.6 7 7 SSW 6 9 29.8 1009 10 16.09344 0 0
8:53 pm 20:53 Clear 93 33.9 24 -4.4 8 8 SSW 7 11 29.8 1009 10 16.09344 0 0
9:53 pm 21:53 Clear 89 31.7 27 -2.8 11 11 NNW 6 9 29.83 1010 10 16.09344 0 0
10:53 pm 22:53 Clear 85 29.4 28 -2.2 13 13 N 9 15 29.83 1010 10 16.09344 0 0
11:53 pm 23:53 Clear 83 28.3 24 -4.4 11 11 N 3 6 29.83 1010 10 16.09344 0 0

Powered by AerisWeather